sensor_id;sensor_type;location;lat;lon;timestamp;temperature;humidity
11128;DHT22;5618;51.028;5.234;2022-07-29T00:00:02;20.10;99.90
11128;DHT22;5618;51.028;5.234;2022-07-29T00:02:28;19.80;99.90
11128;DHT22;5618;51.028;5.234;2022-07-29T00:04:54;19.60;99.90
11128;DHT22;5618;51.028;5.234;2022-07-29T00:07:20;19.60;99.90
11128;DHT22;5618;51.028;5.234;2022-07-29T00:09:45;19.80;99.90
11128;DHT22;5618;51.028;5.234;2022-07-29T00:12:11;19.90;99.90
11128;DHT22;5618;51.028;5.234;2022-07-29T00:14:37;20.10;99.90
11128;DHT22;5618;51.028;5.234;2022-07-29T00:17:03;20.20;99.90
11128;DHT22;5618;51.028;5.234;2022-07-29T00:19:28;20.10;99.90
11128;DHT22;5618;51.028;5.234;2022-07-29T00:21:54;20.00;99.90
11128;DHT22;5618;51.028;5.234;2022-07-29T00:24:20;20.00;99.90
11128;DHT22;5618;51.028;5.234;2022-07-29T00:26:45;20.00;99.90
11128;DHT22;5618;51.028;5.234;2022-07-29T00:29:11;20.30;99.90
11128;DHT22;5618;51.028;5.234;2022-07-29T00:31:37;20.50;99.90
11128;DHT22;5618;51.028;5.234;2022-07-29T00:34:02;20.50;99.90
11128;DHT22;5618;51.028;5.234;2022-07-29T00:36:28;20.30;99.90
11128;DHT22;5618;51.028;5.234;2022-07-29T00:38:54;19.90;99.90
11128;DHT22;5618;51.028;5.234;2022-07-29T00:41:19;19.90;99.90
11128;DHT22;5618;51.028;5.234;2022-07-29T00:43:46;19.60;99.90
11128;DHT22;5618;51.028;5.234;2022-07-29T00:46:12;19.40;99.90
11128;DHT22;5618;51.028;5.234;2022-07-29T00:48:38;19.70;99.90
11128;DHT22;5618;51.028;5.234;2022-07-29T00:51:05;19.80;99.90
11128;DHT22;5618;51.028;5.234;2022-07-29T00:53:33;19.90;99.90
11128;DHT22;5618;51.028;5.234;2022-07-29T00:55:59;19.90;99.90
11128;DHT22;5618;51.028;5.234;2022-07-29T00:58:26;19.80;99.90
11128;DHT22;5618;51.028;5.234;2022-07-29T01:00:52;19.50;99.90
11128;DHT22;5618;51.028;5.234;2022-07-29T01:03:18;19.20;99.90
11128;DHT22;5618;51.028;5.234;2022-07-29T01:05:45;18.90;99.90
11128;DHT22;5618;51.028;5.234;2022-07-29T01:08:12;19.00;99.90
11128;DHT22;5618;51.028;5.234;2022-07-29T01:10:39;18.80;99.90
11128;DHT22;5618;51.028;5.234;2022-07-29T01:13:06;18.70;99.90
11128;DHT22;5618;51.028;5.234;2022-07-29T01:15:36;18.90;99.90
11128;DHT22;5618;51.028;5.234;2022-07-29T01:18:15;19.00;99.90
11128;DHT22;5618;51.028;5.234;2022-07-29T01:26:40;18.70;99.90
11128;DHT22;5618;51.028;5.234;2022-07-29T01:29:16;18.50;99.90
11128;DHT22;5618;51.028;5.234;2022-07-29T01:32:04;18.20;99.90
11128;DHT22;5618;51.028;5.234;2022-07-29T01:34:43;18.10;99.90
11128;DHT22;5618;51.028;5.234;2022-07-29T01:37:21;18.30;99.90
11128;DHT22;5618;51.028;5.234;2022-07-29T01:39:49;18.70;99.90
11128;DHT22;5618;51.028;5.234;2022-07-29T01:45:37;18.90;99.90
11128;DHT22;5618;51.028;5.234;2022-07-29T01:50:47;18.80;99.90
11128;DHT22;5618;51.028;5.234;2022-07-29T01:53:25;18.80;99.90
11128;DHT22;5618;51.028;5.234;2022-07-29T01:55:53;19.00;99.90
11128;DHT22;5618;51.028;5.234;2022-07-29T01:58:20;19.20;99.90
11128;DHT22;5618;51.028;5.234;2022-07-29T02:00:48;19.10;99.90
11128;DHT22;5618;51.028;5.234;2022-07-29T02:03:16;18.90;99.90
11128;DHT22;5618;51.028;5.234;2022-07-29T02:05:45;19.00;99.90
11128;DHT22;5618;51.028;5.234;2022-07-29T02:08:13;19.30;99.90
11128;DHT22;5618;51.028;5.234;2022-07-29T02:10:42;19.50;99.90
11128;DHT22;5618;51.028;5.234;2022-07-29T02:13:09;19.40;99.90
11128;DHT22;5618;51.028;5.234;2022-07-29T02:15:36;19.20;99.90
11128;DHT22;5618;51.028;5.234;2022-07-29T02:18:09;18.70;99.90
11128;DHT22;5618;51.028;5.234;2022-07-29T02:20:38;18.40;99.90
11128;DHT22;5618;51.028;5.234;2022-07-29T02:23:06;18.40;99.90
11128;DHT22;5618;51.028;5.234;2022-07-29T02:25:32;18.80;99.90
11128;DHT22;5618;51.028;5.234;2022-07-29T02:27:59;18.60;99.90
11128;DHT22;5618;51.028;5.234;2022-07-29T02:30:27;18.70;99.90
11128;DHT22;5618;51.028;5.234;2022-07-29T02:32:54;18.90;99.90
11128;DHT22;5618;51.028;5.234;2022-07-29T02:35:21;19.00;99.90
11128;DHT22;5618;51.028;5.234;2022-07-29T02:37:47;19.00;99.90
11128;DHT22;5618;51.028;5.234;2022-07-29T02:40:36;19.00;99.90
11128;DHT22;5618;51.028;5.234;2022-07-29T02:43:05;18.70;99.90
11128;DHT22;5618;51.028;5.234;2022-07-29T02:45:32;18.70;99.90
11128;DHT22;5618;51.028;5.234;2022-07-29T02:48:00;18.90;99.90
11128;DHT22;5618;51.028;5.234;2022-07-29T02:50:34;19.00;99.90
11128;DHT22;5618;51.028;5.234;2022-07-29T02:55:40;19.00;99.90
11128;DHT22;5618;51.028;5.234;2022-07-29T03:00:39;18.90;99.90
11128;DHT22;5618;51.028;5.234;2022-07-29T03:03:10;19.10;99.90
11128;DHT22;5618;51.028;5.234;2022-07-29T03:05:37;19.00;99.90
11128;DHT22;5618;51.028;5.234;2022-07-29T03:08:05;19.00;99.90
11128;DHT22;5618;51.028;5.234;2022-07-29T03:10:32;19.20;99.90
11128;DHT22;5618;51.028;5.234;2022-07-29T03:13:00;19.30;99.90
11128;DHT22;5618;51.028;5.234;2022-07-29T03:15:27;19.20;99.90
11128;DHT22;5618;51.028;5.234;2022-07-29T03:17:53;19.20;99.90
11128;DHT22;5618;51.028;5.234;2022-07-29T03:20:19;19.30;99.90
11128;DHT22;5618;51.028;5.234;2022-07-29T03:22:45;19.20;99.90
11128;DHT22;5618;51.028;5.234;2022-07-29T03:25:15;19.10;99.90
11128;DHT22;5618;51.028;5.234;2022-07-29T03:27:42;19.00;99.90
11128;DHT22;5618;51.028;5.234;2022-07-29T03:30:09;19.00;99.90
11128;DHT22;5618;51.028;5.234;2022-07-29T03:32:35;19.00;99.90
11128;DHT22;5618;51.028;5.234;2022-07-29T03:35:01;19.00;99.90
11128;DHT22;5618;51.028;5.234;2022-07-29T03:37:28;19.00;99.90
11128;DHT22;5618;51.028;5.234;2022-07-29T03:39:58;19.10;99.90
11128;DHT22;5618;51.028;5.234;2022-07-29T03:42:28;19.10;99.90
11128;DHT22;5618;51.028;5.234;2022-07-29T03:44:57;19.10;99.90
11128;DHT22;5618;51.028;5.234;2022-07-29T03:47:25;19.20;99.90
11128;DHT22;5618;51.028;5.234;2022-07-29T03:49:54;19.20;99.90
11128;DHT22;5618;51.028;5.234;2022-07-29T03:52:22;19.00;99.90
11128;DHT22;5618;51.028;5.234;2022-07-29T03:54:48;19.10;99.90
11128;DHT22;5618;51.028;5.234;2022-07-29T03:57:15;19.10;99.90
11128;DHT22;5618;51.028;5.234;2022-07-29T03:59:41;18.90;99.90
11128;DHT22;5618;51.028;5.234;2022-07-29T04:02:09;18.70;99.90
11128;DHT22;5618;51.028;5.234;2022-07-29T04:04:36;18.60;99.90
11128;DHT22;5618;51.028;5.234;2022-07-29T04:07:02;18.70;99.90
11128;DHT22;5618;51.028;5.234;2022-07-29T04:09:28;18.90;99.90
11128;DHT22;5618;51.028;5.234;2022-07-29T04:11:53;19.00;99.90
11128;DHT22;5618;51.028;5.234;2022-07-29T04:14:19;19.00;99.90
11128;DHT22;5618;51.028;5.234;2022-07-29T04:16:46;19.10;99.90
11128;DHT22;5618;51.028;5.234;2022-07-29T04:19:12;19.20;99.90
11128;DHT22;5618;51.028;5.234;2022-07-29T04:21:39;19.20;99.90
11128;DHT22;5618;51.028;5.234;2022-07-29T04:24:05;19.10;99.90
11128;DHT22;5618;51.028;5.234;2022-07-29T04:26:31;19.10;99.90
11128;DHT22;5618;51.028;5.234;2022-07-29T04:28:57;19.10;99.90
11128;DHT22;5618;51.028;5.234;2022-07-29T04:31:22;19.10;99.90
11128;DHT22;5618;51.028;5.234;2022-07-29T04:33:48;19.10;99.90
11128;DHT22;5618;51.028;5.234;2022-07-29T04:36:14;19.20;99.90
11128;DHT22;5618;51.028;5.234;2022-07-29T04:38:39;19.10;99.90
11128;DHT22;5618;51.028;5.234;2022-07-29T04:41:05;19.20;99.90
11128;DHT22;5618;51.028;5.234;2022-07-29T04:43:33;19.20;99.90
11128;DHT22;5618;51.028;5.234;2022-07-29T04:45:58;19.10;99.90
11128;DHT22;5618;51.028;5.234;2022-07-29T04:48:25;19.20;99.90
11128;DHT22;5618;51.028;5.234;2022-07-29T04:50:51;19.20;99.90
11128;DHT22;5618;51.028;5.234;2022-07-29T04:53:16;19.20;99.90
11128;DHT22;5618;51.028;5.234;2022-07-29T04:55:42;19.30;99.90
11128;DHT22;5618;51.028;5.234;2022-07-29T04:58:08;19.40;99.90
11128;DHT22;5618;51.028;5.234;2022-07-29T05:00:33;19.40;99.90
11128;DHT22;5618;51.028;5.234;2022-07-29T05:02:59;19.40;99.90
11128;DHT22;5618;51.028;5.234;2022-07-29T05:05:25;19.40;99.90
11128;DHT22;5618;51.028;5.234;2022-07-29T05:07:51;19.20;99.90
11128;DHT22;5618;51.028;5.234;2022-07-29T05:10:16;19.20;99.90
11128;DHT22;5618;51.028;5.234;2022-07-29T05:12:42;19.20;99.90
11128;DHT22;5618;51.028;5.234;2022-07-29T05:15:08;19.20;99.90
11128;DHT22;5618;51.028;5.234;2022-07-29T05:17:34;19.10;99.90
11128;DHT22;5618;51.028;5.234;2022-07-29T05:20:00;19.10;99.90
11128;DHT22;5618;51.028;5.234;2022-07-29T05:22:26;19.10;99.90
11128;DHT22;5618;51.028;5.234;2022-07-29T05:24:51;19.10;99.90
11128;DHT22;5618;51.028;5.234;2022-07-29T05:27:17;19.20;99.90
11128;DHT22;5618;51.028;5.234;2022-07-29T05:29:43;19.20;99.90
11128;DHT22;5618;51.028;5.234;2022-07-29T05:32:08;19.20;99.90
11128;DHT22;5618;51.028;5.234;2022-07-29T05:34:34;19.20;99.90
11128;DHT22;5618;51.028;5.234;2022-07-29T05:37:00;19.30;99.90
11128;DHT22;5618;51.028;5.234;2022-07-29T05:39:25;19.40;99.90
11128;DHT22;5618;51.028;5.234;2022-07-29T05:41:51;19.40;99.90
11128;DHT22;5618;51.028;5.234;2022-07-29T05:44:17;19.30;99.90
11128;DHT22;5618;51.028;5.234;2022-07-29T05:46:42;19.30;99.90
11128;DHT22;5618;51.028;5.234;2022-07-29T05:49:08;19.60;99.90
11128;DHT22;5618;51.028;5.234;2022-07-29T05:51:34;19.70;99.90
11128;DHT22;5618;51.028;5.234;2022-07-29T05:54:00;19.80;99.90
11128;DHT22;5618;51.028;5.234;2022-07-29T05:56:26;19.80;99.90
11128;DHT22;5618;51.028;5.234;2022-07-29T05:58:52;20.00;99.90
11128;DHT22;5618;51.028;5.234;2022-07-29T06:01:18;20.10;99.90
11128;DHT22;5618;51.028;5.234;2022-07-29T06:03:43;20.30;99.90
11128;DHT22;5618;51.028;5.234;2022-07-29T06:06:09;20.50;99.90
11128;DHT22;5618;51.028;5.234;2022-07-29T06:08:35;20.70;99.90
11128;DHT22;5618;51.028;5.234;2022-07-29T06:11:02;20.90;99.90
11128;DHT22;5618;51.028;5.234;2022-07-29T06:13:28;20.70;99.90
11128;DHT22;5618;51.028;5.234;2022-07-29T06:15:54;20.30;99.90
11128;DHT22;5618;51.028;5.234;2022-07-29T06:18:20;20.50;99.90
11128;DHT22;5618;51.028;5.234;2022-07-29T06:20:50;20.50;99.90
11128;DHT22;5618;51.028;5.234;2022-07-29T06:23:17;20.70;99.90
11128;DHT22;5618;51.028;5.234;2022-07-29T06:25:43;20.50;99.90
11128;DHT22;5618;51.028;5.234;2022-07-29T06:28:09;20.60;99.90
11128;DHT22;5618;51.028;5.234;2022-07-29T06:30:34;20.20;99.90
11128;DHT22;5618;51.028;5.234;2022-07-29T06:33:00;20.50;99.90
11128;DHT22;5618;51.028;5.234;2022-07-29T06:35:27;20.90;99.90
11128;DHT22;5618;51.028;5.234;2022-07-29T06:37:53;20.40;99.90
11128;DHT22;5618;51.028;5.234;2022-07-29T06:40:19;20.20;99.90
11128;DHT22;5618;51.028;5.234;2022-07-29T06:43:03;20.50;99.90
11128;DHT22;5618;51.028;5.234;2022-07-29T06:45:29;21.00;99.90
11128;DHT22;5618;51.028;5.234;2022-07-29T06:47:55;21.50;99.90
11128;DHT22;5618;51.028;5.234;2022-07-29T06:50:20;21.50;99.90
11128;DHT22;5618;51.028;5.234;2022-07-29T06:52:47;21.50;99.90
11128;DHT22;5618;51.028;5.234;2022-07-29T06:55:13;21.60;99.90
11128;DHT22;5618;51.028;5.234;2022-07-29T06:57:39;21.30;99.90
11128;DHT22;5618;51.028;5.234;2022-07-29T07:00:05;21.40;99.90
11128;DHT22;5618;51.028;5.234;2022-07-29T07:02:32;21.40;99.90
11128;DHT22;5618;51.028;5.234;2022-07-29T07:04:57;21.90;99.90
11128;DHT22;5618;51.028;5.234;2022-07-29T07:07:24;22.10;99.90
11128;DHT22;5618;51.028;5.234;2022-07-29T07:09:50;22.50;99.90
11128;DHT22;5618;51.028;5.234;2022-07-29T07:12:15;22.80;99.90
11128;DHT22;5618;51.028;5.234;2022-07-29T07:14:41;22.90;99.90
11128;DHT22;5618;51.028;5.234;2022-07-29T07:17:07;23.10;99.90
11128;DHT22;5618;51.028;5.234;2022-07-29T07:19:33;23.20;99.90
11128;DHT22;5618;51.028;5.234;2022-07-29T07:21:59;23.10;99.90
11128;DHT22;5618;51.028;5.234;2022-07-29T07:24:25;23.20;99.90
11128;DHT22;5618;51.028;5.234;2022-07-29T07:26:51;23.20;99.90
11128;DHT22;5618;51.028;5.234;2022-07-29T07:29:16;23.10;99.90
11128;DHT22;5618;51.028;5.234;2022-07-29T07:31:42;23.00;99.90
11128;DHT22;5618;51.028;5.234;2022-07-29T07:34:08;23.50;99.90
11128;DHT22;5618;51.028;5.234;2022-07-29T07:36:34;23.60;99.90
11128;DHT22;5618;51.028;5.234;2022-07-29T07:38:59;23.60;99.90
11128;DHT22;5618;51.028;5.234;2022-07-29T07:41:25;23.50;99.90
11128;DHT22;5618;51.028;5.234;2022-07-29T07:43:51;23.50;99.90
11128;DHT22;5618;51.028;5.234;2022-07-29T07:46:16;23.40;99.90
11128;DHT22;5618;51.028;5.234;2022-07-29T07:48:42;23.60;99.90
11128;DHT22;5618;51.028;5.234;2022-07-29T07:51:08;24.10;99.90
11128;DHT22;5618;51.028;5.234;2022-07-29T07:56:56;24.30;99.90
11128;DHT22;5618;51.028;5.234;2022-07-29T07:59:21;24.70;99.90
11128;DHT22;5618;51.028;5.234;2022-07-29T08:01:47;25.00;99.90
11128;DHT22;5618;51.028;5.234;2022-07-29T08:04:13;25.20;99.90
11128;DHT22;5618;51.028;5.234;2022-07-29T08:06:38;25.50;99.90
11128;DHT22;5618;51.028;5.234;2022-07-29T08:09:05;25.10;99.90
11128;DHT22;5618;51.028;5.234;2022-07-29T08:11:31;24.70;99.90
11128;DHT22;5618;51.028;5.234;2022-07-29T08:13:57;25.00;99.90
11128;DHT22;5618;51.028;5.234;2022-07-29T08:16:22;25.20;99.90
11128;DHT22;5618;51.028;5.234;2022-07-29T08:18:51;24.80;99.90
11128;DHT22;5618;51.028;5.234;2022-07-29T08:21:17;24.40;99.90
11128;DHT22;5618;51.028;5.234;2022-07-29T08:23:46;24.50;99.90
11128;DHT22;5618;51.028;5.234;2022-07-29T08:26:15;24.90;99.90
11128;DHT22;5618;51.028;5.234;2022-07-29T08:28:42;25.00;99.90
11128;DHT22;5618;51.028;5.234;2022-07-29T08:31:12;25.30;99.90
11128;DHT22;5618;51.028;5.234;2022-07-29T08:33:38;25.40;99.90
11128;DHT22;5618;51.028;5.234;2022-07-29T08:36:05;25.00;99.90
11128;DHT22;5618;51.028;5.234;2022-07-29T08:38:31;25.40;99.90
11128;DHT22;5618;51.028;5.234;2022-07-29T08:40:56;25.80;99.90
11128;DHT22;5618;51.028;5.234;2022-07-29T08:43:23;26.00;99.90
11128;DHT22;5618;51.028;5.234;2022-07-29T08:45:50;25.50;99.90
11128;DHT22;5618;51.028;5.234;2022-07-29T08:48:18;25.30;99.90
11128;DHT22;5618;51.028;5.234;2022-07-29T08:50:45;25.40;99.90
11128;DHT22;5618;51.028;5.234;2022-07-29T08:53:13;25.60;99.90
11128;DHT22;5618;51.028;5.234;2022-07-29T08:55:42;25.70;99.90
11128;DHT22;5618;51.028;5.234;2022-07-29T08:58:09;25.40;99.90
11128;DHT22;5618;51.028;5.234;2022-07-29T09:00:36;25.50;99.90
11128;DHT22;5618;51.028;5.234;2022-07-29T09:03:04;25.90;99.90
11128;DHT22;5618;51.028;5.234;2022-07-29T09:05:31;26.70;99.90
11128;DHT22;5618;51.028;5.234;2022-07-29T09:07:57;27.00;99.90
11128;DHT22;5618;51.028;5.234;2022-07-29T09:10:24;27.40;99.90
11128;DHT22;5618;51.028;5.234;2022-07-29T09:12:50;27.40;99.90
11128;DHT22;5618;51.028;5.234;2022-07-29T09:15:17;27.00;99.90
11128;DHT22;5618;51.028;5.234;2022-07-29T09:17:48;27.00;99.90
11128;DHT22;5618;51.028;5.234;2022-07-29T09:20:19;27.50;99.90
11128;DHT22;5618;51.028;5.234;2022-07-29T09:22:46;26.90;99.90
11128;DHT22;5618;51.028;5.234;2022-07-29T09:25:15;26.80;99.90
11128;DHT22;5618;51.028;5.234;2022-07-29T09:28:06;26.80;99.90
11128;DHT22;5618;51.028;5.234;2022-07-29T09:30:32;26.70;99.90
11128;DHT22;5618;51.028;5.234;2022-07-29T09:32:59;27.30;99.90
11128;DHT22;5618;51.028;5.234;2022-07-29T09:35:29;27.50;99.90
11128;DHT22;5618;51.028;5.234;2022-07-29T09:37:55;27.90;99.90
11128;DHT22;5618;51.028;5.234;2022-07-29T09:40:24;28.10;99.90
11128;DHT22;5618;51.028;5.234;2022-07-29T09:42:51;28.40;99.90
11128;DHT22;5618;51.028;5.234;2022-07-29T09:45:31;28.70;99.90
11128;DHT22;5618;51.028;5.234;2022-07-29T09:47:57;28.00;99.90
11128;DHT22;5618;51.028;5.234;2022-07-29T09:50:39;27.60;99.90
11128;DHT22;5618;51.028;5.234;2022-07-29T09:53:05;27.00;99.90
11128;DHT22;5618;51.028;5.234;2022-07-29T09:55:31;26.60;99.90
11128;DHT22;5618;51.028;5.234;2022-07-29T09:58:19;27.10;99.90
11128;DHT22;5618;51.028;5.234;2022-07-29T10:00:46;28.00;99.90
11128;DHT22;5618;51.028;5.234;2022-07-29T10:03:13;27.80;99.90
11128;DHT22;5618;51.028;5.234;2022-07-29T10:05:41;27.50;99.90
11128;DHT22;5618;51.028;5.234;2022-07-29T10:08:08;27.70;99.90
11128;DHT22;5618;51.028;5.234;2022-07-29T10:10:39;28.60;99.90
11128;DHT22;5618;51.028;5.234;2022-07-29T10:13:13;28.90;99.90
11128;DHT22;5618;51.028;5.234;2022-07-29T10:15:41;29.20;99.90
11128;DHT22;5618;51.028;5.234;2022-07-29T10:18:10;29.70;99.50
11128;DHT22;5618;51.028;5.234;2022-07-29T10:20:36;29.70;98.90
11128;DHT22;5618;51.028;5.234;2022-07-29T10:23:02;29.60;99.00
11128;DHT22;5618;51.028;5.234;2022-07-29T10:25:28;29.00;99.90
11128;DHT22;5618;51.028;5.234;2022-07-29T10:27:54;28.30;99.90
11128;DHT22;5618;51.028;5.234;2022-07-29T10:30:22;28.90;99.90
11128;DHT22;5618;51.028;5.234;2022-07-29T10:33:08;29.60;99.90
11128;DHT22;5618;51.028;5.234;2022-07-29T10:44:22;30.60;96.90
11128;DHT22;5618;51.028;5.234;2022-07-29T10:46:49;29.90;96.80
11128;DHT22;5618;51.028;5.234;2022-07-29T10:49:22;29.40;97.60
11128;DHT22;5618;51.028;5.234;2022-07-29T10:54:40;29.20;97.50
11128;DHT22;5618;51.028;5.234;2022-07-29T11:05:12;30.20;96.20
11128;DHT22;5618;51.028;5.234;2022-07-29T11:08:16;29.90;94.90
11128;DHT22;5618;51.028;5.234;2022-07-29T11:10:25;30.20;94.60
11128;DHT22;5618;51.028;5.234;2022-07-29T11:12:51;30.20;95.00
11128;DHT22;5618;51.028;5.234;2022-07-29T11:15:20;29.70;93.90
11128;DHT22;5618;51.028;5.234;2022-07-29T11:20:47;29.10;95.40
11128;DHT22;5618;51.028;5.234;2022-07-29T11:25:46;29.30;96.10
11128;DHT22;5618;51.028;5.234;2022-07-29T11:28:32;30.00;95.40
11128;DHT22;5618;51.028;5.234;2022-07-29T11:30:59;30.40;94.50
11128;DHT22;5618;51.028;5.234;2022-07-29T11:33:33;30.00;94.70
11128;DHT22;5618;51.028;5.234;2022-07-29T11:36:11;29.60;94.50
11128;DHT22;5618;51.028;5.234;2022-07-29T11:38:38;29.00;95.10
11128;DHT22;5618;51.028;5.234;2022-07-29T11:43:53;30.00;95.00
11128;DHT22;5618;51.028;5.234;2022-07-29T11:49:12;30.20;94.10
11128;DHT22;5618;51.028;5.234;2022-07-29T11:51:38;30.30;93.70
11128;DHT22;5618;51.028;5.234;2022-07-29T11:54:05;30.20;94.00
11128;DHT22;5618;51.028;5.234;2022-07-29T11:56:31;30.10;94.20
11128;DHT22;5618;51.028;5.234;2022-07-29T11:59:07;29.60;92.80
11128;DHT22;5618;51.028;5.234;2022-07-29T12:01:35;29.30;94.20
11128;DHT22;5618;51.028;5.234;2022-07-29T12:04:07;29.60;94.10
11128;DHT22;5618;51.028;5.234;2022-07-29T12:06:36;29.80;94.00
11128;DHT22;5618;51.028;5.234;2022-07-29T12:09:10;29.80;94.50
11128;DHT22;5618;51.028;5.234;2022-07-29T12:11:36;29.60;94.30
11128;DHT22;5618;51.028;5.234;2022-07-29T12:14:02;28.90;94.10
11128;DHT22;5618;51.028;5.234;2022-07-29T12:16:37;28.50;95.10
11128;DHT22;5618;51.028;5.234;2022-07-29T12:19:03;28.70;94.80
11128;DHT22;5618;51.028;5.234;2022-07-29T12:21:46;29.20;93.30
11128;DHT22;5618;51.028;5.234;2022-07-29T12:24:12;29.20;93.80
11128;DHT22;5618;51.028;5.234;2022-07-29T12:26:52;29.30;94.70
11128;DHT22;5618;51.028;5.234;2022-07-29T12:29:18;29.20;93.70
11128;DHT22;5618;51.028;5.234;2022-07-29T12:31:45;28.70;93.70
11128;DHT22;5618;51.028;5.234;2022-07-29T12:34:15;28.90;94.30
11128;DHT22;5618;51.028;5.234;2022-07-29T12:36:42;29.30;92.50
11128;DHT22;5618;51.028;5.234;2022-07-29T12:39:09;29.40;92.90
11128;DHT22;5618;51.028;5.234;2022-07-29T12:41:35;29.40;93.10
11128;DHT22;5618;51.028;5.234;2022-07-29T12:44:01;29.20;92.30
11128;DHT22;5618;51.028;5.234;2022-07-29T12:46:27;29.10;92.60
11128;DHT22;5618;51.028;5.234;2022-07-29T12:48:54;28.50;91.90
11128;DHT22;5618;51.028;5.234;2022-07-29T12:51:37;28.40;92.30
11128;DHT22;5618;51.028;5.234;2022-07-29T12:54:15;28.50;92.70
11128;DHT22;5618;51.028;5.234;2022-07-29T12:56:42;28.70;91.50
11128;DHT22;5618;51.028;5.234;2022-07-29T12:59:17;28.30;91.30
11128;DHT22;5618;51.028;5.234;2022-07-29T13:01:43;28.50;91.90
11128;DHT22;5618;51.028;5.234;2022-07-29T13:04:09;28.80;92.50
11128;DHT22;5618;51.028;5.234;2022-07-29T13:06:43;28.80;92.00
11128;DHT22;5618;51.028;5.234;2022-07-29T13:11:49;28.90;92.90
11128;DHT22;5618;51.028;5.234;2022-07-29T13:14:35;29.00;92.10
11128;DHT22;5618;51.028;5.234;2022-07-29T13:17:18;29.20;92.10
11128;DHT22;5618;51.028;5.234;2022-07-29T13:20:07;29.20;91.80
11128;DHT22;5618;51.028;5.234;2022-07-29T13:22:47;29.40;90.10
11128;DHT22;5618;51.028;5.234;2022-07-29T13:25:13;29.50;90.00
11128;DHT22;5618;51.028;5.234;2022-07-29T13:27:39;29.30;89.90
11128;DHT22;5618;51.028;5.234;2022-07-29T13:30:08;29.10;89.90
11128;DHT22;5618;51.028;5.234;2022-07-29T13:32:35;29.10;91.20
11128;DHT22;5618;51.028;5.234;2022-07-29T13:35:06;28.90;91.40
11128;DHT22;5618;51.028;5.234;2022-07-29T13:37:34;28.80;91.70
11128;DHT22;5618;51.028;5.234;2022-07-29T13:40:01;29.00;91.80
11128;DHT22;5618;51.028;5.234;2022-07-29T13:42:28;29.10;92.30
11128;DHT22;5618;51.028;5.234;2022-07-29T13:44:54;29.20;92.80
11128;DHT22;5618;51.028;5.234;2022-07-29T13:47:20;29.30;91.50
11128;DHT22;5618;51.028;5.234;2022-07-29T13:49:46;29.30;91.70
11128;DHT22;5618;51.028;5.234;2022-07-29T13:52:11;29.20;91.10
11128;DHT22;5618;51.028;5.234;2022-07-29T13:54:37;29.00;91.20
11128;DHT22;5618;51.028;5.234;2022-07-29T13:57:05;29.00;92.00
11128;DHT22;5618;51.028;5.234;2022-07-29T13:59:31;29.10;91.20
11128;DHT22;5618;51.028;5.234;2022-07-29T14:01:57;29.00;91.20
11128;DHT22;5618;51.028;5.234;2022-07-29T14:04:23;28.90;91.10
11128;DHT22;5618;51.028;5.234;2022-07-29T14:06:49;28.80;91.70
11128;DHT22;5618;51.028;5.234;2022-07-29T14:09:15;29.10;90.60
11128;DHT22;5618;51.028;5.234;2022-07-29T14:11:41;29.20;90.30
11128;DHT22;5618;51.028;5.234;2022-07-29T14:14:07;29.20;91.10
11128;DHT22;5618;51.028;5.234;2022-07-29T14:16:33;29.30;90.40
11128;DHT22;5618;51.028;5.234;2022-07-29T14:18:59;29.00;90.00
11128;DHT22;5618;51.028;5.234;2022-07-29T14:21:25;29.00;90.60
11128;DHT22;5618;51.028;5.234;2022-07-29T14:23:51;28.90;89.90
11128;DHT22;5618;51.028;5.234;2022-07-29T14:26:18;28.80;90.80
11128;DHT22;5618;51.028;5.234;2022-07-29T14:28:44;29.20;89.00
11128;DHT22;5618;51.028;5.234;2022-07-29T14:31:10;29.20;87.70
11128;DHT22;5618;51.028;5.234;2022-07-29T14:33:35;29.20;88.60
11128;DHT22;5618;51.028;5.234;2022-07-29T14:36:01;29.20;88.10
11128;DHT22;5618;51.028;5.234;2022-07-29T14:38:27;29.30;87.80
11128;DHT22;5618;51.028;5.234;2022-07-29T14:40:52;29.50;86.20
11128;DHT22;5618;51.028;5.234;2022-07-29T14:43:18;29.50;87.20
11128;DHT22;5618;51.028;5.234;2022-07-29T14:45:44;29.80;87.40
11128;DHT22;5618;51.028;5.234;2022-07-29T14:48:10;29.60;86.10
11128;DHT22;5618;51.028;5.234;2022-07-29T14:50:37;29.30;85.80
11128;DHT22;5618;51.028;5.234;2022-07-29T14:53:03;29.40;85.50
11128;DHT22;5618;51.028;5.234;2022-07-29T14:55:29;29.30;86.10
11128;DHT22;5618;51.028;5.234;2022-07-29T14:57:55;29.20;86.00
11128;DHT22;5618;51.028;5.234;2022-07-29T15:00:21;29.00;86.00
11128;DHT22;5618;51.028;5.234;2022-07-29T15:02:48;29.00;87.80
11128;DHT22;5618;51.028;5.234;2022-07-29T15:05:14;28.70;83.40
11128;DHT22;5618;51.028;5.234;2022-07-29T15:07:39;28.80;85.10
11128;DHT22;5618;51.028;5.234;2022-07-29T15:10:05;29.00;87.20
11128;DHT22;5618;51.028;5.234;2022-07-29T15:12:31;29.20;87.00
11128;DHT22;5618;51.028;5.234;2022-07-29T15:14:57;29.30;84.90
11128;DHT22;5618;51.028;5.234;2022-07-29T15:17:23;29.70;86.10
11128;DHT22;5618;51.028;5.234;2022-07-29T15:19:49;29.80;84.10
11128;DHT22;5618;51.028;5.234;2022-07-29T15:22:15;29.80;85.30
11128;DHT22;5618;51.028;5.234;2022-07-29T15:24:40;29.90;83.50
11128;DHT22;5618;51.028;5.234;2022-07-29T15:27:06;30.00;84.40
11128;DHT22;5618;51.028;5.234;2022-07-29T15:29:32;29.80;81.00
11128;DHT22;5618;51.028;5.234;2022-07-29T15:31:58;29.70;84.70
11128;DHT22;5618;51.028;5.234;2022-07-29T15:34:24;29.70;84.40
11128;DHT22;5618;51.028;5.234;2022-07-29T15:36:50;29.70;83.30
11128;DHT22;5618;51.028;5.234;2022-07-29T15:39:17;29.80;84.20
11128;DHT22;5618;51.028;5.234;2022-07-29T15:41:42;29.60;83.60
11128;DHT22;5618;51.028;5.234;2022-07-29T15:44:08;29.70;82.30
11128;DHT22;5618;51.028;5.234;2022-07-29T15:46:34;29.50;81.40
11128;DHT22;5618;51.028;5.234;2022-07-29T15:49:18;29.40;82.50
11128;DHT22;5618;51.028;5.234;2022-07-29T15:51:43;29.30;84.60
11128;DHT22;5618;51.028;5.234;2022-07-29T15:54:09;29.20;82.20
11128;DHT22;5618;51.028;5.234;2022-07-29T15:56:35;29.20;82.90
11128;DHT22;5618;51.028;5.234;2022-07-29T15:59:00;29.10;82.70
11128;DHT22;5618;51.028;5.234;2022-07-29T16:01:26;28.90;83.30
11128;DHT22;5618;51.028;5.234;2022-07-29T16:03:52;28.10;83.50
11128;DHT22;5618;51.028;5.234;2022-07-29T16:06:18;28.00;84.70
11128;DHT22;5618;51.028;5.234;2022-07-29T16:08:45;28.10;84.40
11128;DHT22;5618;51.028;5.234;2022-07-29T16:11:11;28.10;83.20
11128;DHT22;5618;51.028;5.234;2022-07-29T16:13:36;28.20;82.50
11128;DHT22;5618;51.028;5.234;2022-07-29T16:16:02;28.10;83.30
11128;DHT22;5618;51.028;5.234;2022-07-29T16:18:28;28.10;83.60
11128;DHT22;5618;51.028;5.234;2022-07-29T16:20:54;28.20;84.00
11128;DHT22;5618;51.028;5.234;2022-07-29T16:23:19;28.20;83.50
11128;DHT22;5618;51.028;5.234;2022-07-29T16:25:45;28.40;84.30
11128;DHT22;5618;51.028;5.234;2022-07-29T16:28:11;28.50;85.20
11128;DHT22;5618;51.028;5.234;2022-07-29T16:30:37;28.50;83.60
11128;DHT22;5618;51.028;5.234;2022-07-29T16:33:03;28.20;82.00
11128;DHT22;5618;51.028;5.234;2022-07-29T16:35:29;28.40;83.80
11128;DHT22;5618;51.028;5.234;2022-07-29T16:37:56;28.50;85.60
11128;DHT22;5618;51.028;5.234;2022-07-29T16:40:22;28.50;81.50